createdAt,value
2016-12-06T00:00:16.057Z,19.8
2016-12-06T00:00:46.720Z,19.76
2016-12-06T00:01:16.491Z,19.72
2016-12-06T00:01:44.467Z,19.72
2016-12-06T00:02:12.543Z,19.84
2016-12-06T00:02:40.892Z,19.78
2016-12-06T00:03:08.695Z,19.84
2016-12-06T00:03:36.776Z,19.86
2016-12-06T00:04:04.472Z,19.78
2016-12-06T00:04:32.349Z,19.86
2016-12-06T00:05:00.521Z,19.86
2016-12-06T00:05:29.171Z,19.87
2016-12-06T00:05:58.174Z,19.91
2016-12-06T00:06:26.366Z,19.93
2016-12-06T00:06:54.464Z,19.87
2016-12-06T00:07:22.289Z,19.9
2016-12-06T00:07:50.417Z,19.93
2016-12-06T00:08:18.879Z,19.88
2016-12-06T00:08:46.709Z,19.87
2016-12-06T00:09:14.852Z,19.83
2016-12-06T00:09:43.336Z,19.87
2016-12-06T00:10:11.489Z,19.91
2016-12-06T00:10:39.725Z,19.86
2016-12-06T00:11:07.490Z,19.88
2016-12-06T00:11:35.505Z,19.83
2016-12-06T00:12:09.337Z,19.86
2016-12-06T00:12:39.655Z,19.83
2016-12-06T00:13:09.540Z,19.73
2016-12-06T00:13:37.357Z,19.76
2016-12-06T00:14:05.532Z,19.75
2016-12-06T00:14:33.689Z,19.8
2016-12-06T00:15:01.510Z,19.72
2016-12-06T00:15:29.264Z,19.83
2016-12-06T00:15:57.414Z,19.8
2016-12-06T00:16:25.289Z,19.84
2016-12-06T00:16:53.104Z,19.78
2016-12-06T00:17:20.915Z,19.8
2016-12-06T00:17:48.701Z,19.8
2016-12-06T00:18:16.863Z,19.86
2016-12-06T00:18:44.609Z,19.79
2016-12-06T00:19:12.762Z,19.79
2016-12-06T00:19:40.861Z,19.7
2016-12-06T00:20:08.692Z,19.68
2016-12-06T00:20:36.771Z,19.68
2016-12-06T00:21:04.593Z,19.69
2016-12-06T00:21:32.358Z,19.66
2016-12-06T00:22:00.076Z,19.69
2016-12-06T00:22:28.240Z,19.68
2016-12-06T00:22:56.294Z,19.65
2016-12-06T00:23:24.106Z,19.66
2016-12-06T00:23:52.210Z,19.69
2016-12-06T00:24:20.454Z,19.65
2016-12-06T00:24:48.545Z,19.65
2016-12-06T00:25:16.423Z,19.76
2016-12-06T00:25:44.249Z,19.65
2016-12-06T00:26:12.379Z,19.72
2016-12-06T00:26:40.182Z,19.68
2016-12-06T00:27:08.050Z,19.73
2016-12-06T00:27:35.869Z,19.72
2016-12-06T00:28:03.696Z,19.79
2016-12-06T00:28:32.201Z,19.73
2016-12-06T00:28:59.978Z,19.84
2016-12-06T00:29:27.792Z,19.79
2016-12-06T00:29:55.636Z,19.83
2016-12-06T00:30:23.395Z,19.84
2016-12-06T00:30:51.500Z,19.86
2016-12-06T00:31:19.358Z,19.73
2016-12-06T00:31:47.603Z,19.84
2016-12-06T00:32:15.363Z,19.84
2016-12-06T00:32:43.392Z,19.79
2016-12-06T00:33:12.306Z,19.8
2016-12-06T00:33:40.379Z,19.86
2016-12-06T00:34:08.561Z,19.8
2016-12-06T00:34:37.049Z,19.86
2016-12-06T00:35:05.269Z,19.8
2016-12-06T00:35:33.084Z,19.8
2016-12-06T00:36:01.731Z,19.84
2016-12-06T00:36:29.555Z,19.84
2016-12-06T00:36:57.338Z,19.84
2016-12-06T00:37:25.734Z,19.79
2016-12-06T00:37:53.823Z,19.84
2016-12-06T00:38:21.927Z,19.8
2016-12-06T00:38:50.036Z,19.79
2016-12-06T00:39:17.885Z,19.72
2016-12-06T00:39:45.934Z,19.75
2016-12-06T00:40:14.023Z,19.73
2016-12-06T00:40:42.245Z,19.8
2016-12-06T00:41:10.304Z,19.75
2016-12-06T00:41:38.157Z,19.75
2016-12-06T00:42:06.354Z,19.76
2016-12-06T00:42:34.446Z,19.7
2016-12-06T00:43:02.457Z,19.69
2016-12-06T00:43:30.287Z,19.76
2016-12-06T00:43:58.223Z,19.69
2016-12-06T00:44:26.322Z,19.69
2016-12-06T00:44:54.147Z,19.75
2016-12-06T00:45:21.905Z,19.69
2016-12-06T00:45:50.382Z,19.68
2016-12-06T00:46:18.539Z,19.55
2016-12-06T00:46:46.334Z,19.55
2016-12-06T00:47:14.112Z,19.57
2016-12-06T00:47:41.949Z,19.57
2016-12-06T00:48:09.838Z,19.43
2016-12-06T00:48:37.596Z,19.48
2016-12-06T00:49:05.338Z,19.47
2016-12-06T00:49:33.228Z,19.4
2016-12-06T00:50:01.032Z,19.47
2016-12-06T00:50:29.183Z,19.4
2016-12-06T00:50:56.962Z,19.33
2016-12-06T00:51:24.728Z,19.32
2016-12-06T00:51:52.839Z,19.38
2016-12-06T00:52:20.652Z,19.35
2016-12-06T00:52:48.764Z,19.33
2016-12-06T00:53:16.882Z,19.32
2016-12-06T00:53:45.003Z,19.31
2016-12-06T00:54:12.838Z,19.29
2016-12-06T00:54:40.651Z,19.21
2016-12-06T00:55:08.790Z,19.2
2016-12-06T00:55:36.608Z,19.18
2016-12-06T00:56:04.433Z,19.21
2016-12-06T00:56:32.226Z,19.14
2016-12-06T00:57:00.004Z,19.17
2016-12-06T00:57:27.800Z,19.21
2016-12-06T00:57:55.650Z,19.17
2016-12-06T00:58:23.573Z,19.13
2016-12-06T00:58:51.309Z,19.15
2016-12-06T00:59:19.013Z,19.1
2016-12-06T00:59:47.137Z,19.1
2016-12-06T01:00:14.927Z,19.05
2016-12-06T01:00:43.408Z,19.13
2016-12-06T01:01:11.495Z,19.02
2016-12-06T01:01:39.358Z,19.02
2016-12-06T01:02:07.115Z,19.01
2016-12-06T01:02:34.932Z,18.99
2016-12-06T01:03:03.331Z,19.02
2016-12-06T01:03:31.267Z,19.01
2016-12-06T01:03:59.075Z,18.99
2016-12-06T01:04:27.553Z,18.98
2016-12-06T01:04:55.395Z,18.92
2016-12-06T01:05:23.173Z,18.94
2016-12-06T01:05:51.055Z,19.02
2016-12-06T01:06:18.956Z,18.99
2016-12-06T01:06:46.782Z,19.02
2016-12-06T01:07:14.839Z,18.99
2016-12-06T01:07:42.600Z,19.11
2016-12-06T01:08:10.558Z,19.05
2016-12-06T01:08:39.068Z,19.06
2016-12-06T01:09:07.211Z,19.15
2016-12-06T01:09:35.091Z,19.02
2016-12-06T01:10:02.977Z,18.97
2016-12-06T01:10:30.762Z,19.02
2016-12-06T01:10:58.666Z,19.1
2016-12-06T01:11:26.443Z,19.02
2016-12-06T01:11:54.637Z,19.08
2016-12-06T01:12:22.464Z,19.14
2016-12-06T01:12:50.203Z,19.01
2016-12-06T01:13:18.451Z,18.97
2016-12-06T01:13:46.578Z,19.05
2016-12-06T01:14:14.788Z,18.91
2016-12-06T01:14:42.603Z,18.97
2016-12-06T01:15:10.380Z,18.98
2016-12-06T01:15:38.119Z,18.9
2016-12-06T01:16:06.574Z,18.97
2016-12-06T01:16:34.635Z,18.97
2016-12-06T01:17:02.809Z,18.91
2016-12-06T01:17:30.589Z,18.91
2016-12-06T01:17:58.364Z,18.97
2016-12-06T01:18:26.190Z,18.91
2016-12-06T01:18:54.080Z,18.86
2016-12-06T01:19:21.905Z,18.79
2016-12-06T01:19:50.342Z,18.83
2016-12-06T01:20:18.502Z,18.82
2016-12-06T01:20:46.334Z,18.86
2016-12-06T01:21:14.117Z,18.84
2016-12-06T01:21:42.280Z,18.82
2016-12-06T01:22:10.161Z,18.77
2016-12-06T01:22:38.011Z,18.9
2016-12-06T01:23:05.892Z,18.87
2016-12-06T01:23:33.810Z,18.8
2016-12-06T01:24:01.570Z,18.9
2016-12-06T01:24:29.991Z,18.94
2016-12-06T01:24:57.798Z,18.83
2016-12-06T01:25:25.516Z,18.87
2016-12-06T01:25:53.647Z,18.8
2016-12-06T01:26:21.831Z,18.77
2016-12-06T01:26:49.604Z,18.8
2016-12-06T01:27:17.660Z,18.79
2016-12-06T01:27:45.572Z,18.8
2016-12-06T01:28:13.876Z,18.79
2016-12-06T01:28:42.046Z,18.83
2016-12-06T01:29:10.004Z,18.8
2016-12-06T01:29:37.795Z,18.92
2016-12-06T01:30:06.207Z,18.79
2016-12-06T01:30:34.011Z,18.91
2016-12-06T01:31:01.799Z,18.91
2016-12-06T01:31:29.614Z,18.92
2016-12-06T01:31:57.442Z,18.91
2016-12-06T01:32:25.557Z,18.95
2016-12-06T01:32:53.322Z,18.94
2016-12-06T01:33:21.307Z,19.05
2016-12-06T01:33:49.462Z,19.08
2016-12-06T01:34:17.281Z,19.02
2016-12-06T01:34:45.144Z,19.1
2016-12-06T01:35:13.816Z,19.11
2016-12-06T01:35:42.011Z,19.06
2016-12-06T01:36:09.755Z,19.08
2016-12-06T01:36:37.632Z,19.14
2016-12-06T01:37:05.421Z,19.14
2016-12-06T01:37:33.368Z,19.08
2016-12-06T01:38:01.216Z,19.14
2016-12-06T01:38:29.004Z,19.17
2016-12-06T01:38:57.221Z,19.2
2016-12-06T01:39:25.055Z,19.15
2016-12-06T01:39:52.888Z,19.18
2016-12-06T01:40:20.745Z,19.15
2016-12-06T01:40:48.583Z,19.17
2016-12-06T01:41:16.441Z,19.18
2016-12-06T01:41:44.244Z,19.17
2016-12-06T01:42:12.386Z,19.18
2016-12-06T01:42:41.330Z,19.15
2016-12-06T01:43:09.442Z,19.15
2016-12-06T01:43:37.230Z,19.13
2016-12-06T01:44:05.016Z,19.15
2016-12-06T01:44:33.099Z,19.15
2016-12-06T01:45:00.888Z,19.1
2016-12-06T01:45:28.746Z,19.08
2016-12-06T01:45:56.635Z,18.98
2016-12-06T01:46:25.123Z,18.97
2016-12-06T01:46:53.192Z,18.9
2016-12-06T01:47:20.990Z,18.95
2016-12-06T01:47:49.146Z,18.92
2016-12-06T01:48:16.960Z,18.9
2016-12-06T01:48:45.558Z,18.8
2016-12-06T01:49:13.355Z,18.86
2016-12-06T01:49:41.456Z,18.82
2016-12-06T01:50:09.658Z,18.84
2016-12-06T01:50:37.733Z,18.8
2016-12-06T01:51:05.566Z,18.82
2016-12-06T01:51:33.659Z,18.8
2016-12-06T01:52:01.493Z,18.84
2016-12-06T01:52:29.295Z,18.8
2016-12-06T01:52:57.381Z,18.74
2016-12-06T01:53:25.236Z,18.77
2016-12-06T01:53:53.703Z,18.76
2016-12-06T01:54:21.625Z,18.79
2016-12-06T01:54:49.426Z,18.79
2016-12-06T01:55:17.532Z,18.72
2016-12-06T01:55:45.667Z,18.7
2016-12-06T01:56:13.491Z,18.74
2016-12-06T01:56:42.031Z,18.82
2016-12-06T01:57:09.841Z,18.83
2016-12-06T01:57:37.657Z,18.82
2016-12-06T01:58:05.394Z,18.79
2016-12-06T01:58:33.284Z,18.73
2016-12-06T01:59:01.141Z,18.79
2016-12-06T01:59:29.022Z,18.73
2016-12-06T01:59:56.910Z,18.76
2016-12-06T02:00:24.695Z,18.79
2016-12-06T02:00:52.510Z,18.8
2016-12-06T02:01:20.284Z,18.76
2016-12-06T02:01:48.130Z,18.67
2016-12-06T02:02:16.182Z,18.65
2016-12-06T02:02:44.040Z,18.74
2016-12-06T02:03:11.859Z,18.79
2016-12-06T02:03:39.643Z,18.74
2016-12-06T02:04:07.753Z,18.77
2016-12-06T02:04:35.498Z,18.74
2016-12-06T02:05:03.255Z,18.7
2016-12-06T02:05:31.041Z,18.79
2016-12-06T02:05:59.168Z,18.74
2016-12-06T02:06:27.293Z,18.76
2016-12-06T02:06:55.072Z,18.7
2016-12-06T02:07:23.172Z,18.72
2016-12-06T02:07:51.249Z,18.68
2016-12-06T02:08:19.400Z,18.7
2016-12-06T02:08:47.841Z,18.68
2016-12-06T02:09:15.679Z,18.62
2016-12-06T02:09:43.606Z,18.72
2016-12-06T02:10:11.515Z,18.59
2016-12-06T02:10:39.406Z,18.68
2016-12-06T02:11:07.657Z,18.57
2016-12-06T02:11:35.445Z,18.59
2016-12-06T02:12:03.331Z,18.64
2016-12-06T02:12:31.509Z,18.55
2016-12-06T02:12:59.360Z,18.61
2016-12-06T02:13:27.120Z,18.64
2016-12-06T02:13:55.178Z,18.61
2016-12-06T02:14:23.045Z,18.57
2016-12-06T02:14:50.918Z,18.67
2016-12-06T02:15:19.119Z,18.57
2016-12-06T02:15:47.227Z,18.55
2016-12-06T02:16:15.667Z,18.59
2016-12-06T02:16:43.864Z,18.58
2016-12-06T02:17:11.727Z,18.5
2016-12-06T02:17:39.478Z,18.58
2016-12-06T02:18:07.248Z,18.47
2016-12-06T02:18:35.449Z,18.55
2016-12-06T02:19:03.461Z,18.54
2016-12-06T02:19:31.304Z,18.57
2016-12-06T02:19:59.161Z,18.54
2016-12-06T02:20:27.022Z,18.59
2016-12-06T02:20:54.827Z,18.64
2016-12-06T02:21:23.053Z,18.52
2016-12-06T02:21:50.866Z,18.59
2016-12-06T02:22:19.378Z,18.59
2016-12-06T02:22:47.180Z,18.57
2016-12-06T02:23:15.084Z,18.57
2016-12-06T02:23:42.925Z,18.49
2016-12-06T02:24:11.091Z,18.46
2016-12-06T02:24:38.952Z,18.55
2016-12-06T02:25:06.764Z,18.54
2016-12-06T02:25:34.618Z,18.52
2016-12-06T02:26:03.043Z,18.54
2016-12-06T02:26:30.907Z,18.47
2016-12-06T02:26:58.729Z,18.57
2016-12-06T02:27:26.562Z,18.54
2016-12-06T02:27:54.372Z,18.49
2016-12-06T02:28:22.178Z,18.43
2016-12-06T02:28:49.974Z,18.49
2016-12-06T02:29:18.405Z,18.39
2016-12-06T02:29:46.492Z,18.44
2016-12-06T02:30:14.358Z,18.49
2016-12-06T02:30:42.505Z,18.34
2016-12-06T02:31:10.655Z,18.47
2016-12-06T02:31:38.444Z,18.42
2016-12-06T02:32:06.614Z,18.39
2016-12-06T02:32:34.358Z,18.44
2016-12-06T02:33:02.181Z,18.43
2016-12-06T02:33:30.019Z,18.4
2016-12-06T02:33:58.346Z,18.34
2016-12-06T02:34:26.456Z,18.29
2016-12-06T02:34:54.222Z,18.33
2016-12-06T02:35:22.019Z,18.33
2016-12-06T02:35:50.066Z,18.37
2016-12-06T02:36:17.835Z,18.33
2016-12-06T02:36:45.990Z,18.34
2016-12-06T02:37:15.001Z,18.34
2016-12-06T02:37:42.812Z,18.39
2016-12-06T02:38:10.647Z,18.39
2016-12-06T02:38:38.434Z,18.44
2016-12-06T02:39:06.301Z,18.34
2016-12-06T02:39:34.440Z,18.37
2016-12-06T02:40:02.627Z,18.4
2016-12-06T02:40:30.439Z,18.33
2016-12-06T02:40:58.600Z,18.29
2016-12-06T02:41:26.682Z,18.28
2016-12-06T02:41:54.774Z,18.25
2016-12-06T02:42:23.196Z,18.34
2016-12-06T02:42:51.036Z,18.34
2016-12-06T02:43:19.166Z,18.31
2016-12-06T02:43:47.249Z,18.31
2016-12-06T02:44:15.298Z,18.29
2016-12-06T02:44:43.088Z,18.24
2016-12-06T02:45:10.931Z,18.29
2016-12-06T02:45:39.088Z,18.22
2016-12-06T02:46:07.241Z,18.24
2016-12-06T02:46:35.296Z,18.22
2016-12-06T02:47:03.073Z,18.25
2016-12-06T02:47:31.168Z,18.21
2016-12-06T02:47:59.302Z,18.25
2016-12-06T02:48:27.129Z,18.21
2016-12-06T02:48:55.237Z,18.18
2016-12-06T02:49:24.015Z,18.33
2016-12-06T02:49:52.729Z,18.34
2016-12-06T02:50:20.500Z,18.37
2016-12-06T02:50:49.217Z,18.29
2016-12-06T02:51:17.071Z,18.33
2016-12-06T02:51:45.210Z,18.39
2016-12-06T02:52:13.066Z,18.4
2016-12-06T02:52:40.991Z,18.36
2016-12-06T02:53:09.142Z,18.36
2016-12-06T02:53:37.169Z,18.34
2016-12-06T02:54:04.982Z,18.42
2016-12-06T02:54:32.945Z,18.44
2016-12-06T02:55:01.124Z,18.42
2016-12-06T02:55:29.287Z,18.42
2016-12-06T02:55:57.159Z,18.42
2016-12-06T02:56:26.183Z,18.49
2016-12-06T02:56:54.257Z,18.5
2016-12-06T02:57:22.132Z,18.47
2016-12-06T02:57:50.042Z,18.47
2016-12-06T02:58:17.855Z,18.52
2016-12-06T02:58:45.667Z,18.57
2016-12-06T02:59:13.465Z,18.5
2016-12-06T02:59:41.561Z,18.54
2016-12-06T03:00:09.363Z,18.54
2016-12-06T03:00:37.159Z,18.54
2016-12-06T03:01:05.296Z,18.59
2016-12-06T03:01:33.149Z,18.55
2016-12-06T03:02:02.528Z,18.61
2016-12-06T03:02:31.014Z,18.58
2016-12-06T03:02:59.690Z,18.47
2016-12-06T03:03:27.523Z,18.57
2016-12-06T03:03:55.284Z,18.46
2016-12-06T03:04:23.139Z,18.57
2016-12-06T03:04:51.393Z,18.47
2016-12-06T03:05:19.288Z,18.44
2016-12-06T03:06:02.034Z,18.42
2016-12-06T03:06:30.045Z,18.47
2016-12-06T03:06:57.963Z,18.43
2016-12-06T03:07:25.925Z,18.37
2016-12-06T03:08:36.243Z,18.42
2016-12-06T03:09:04.666Z,18.36
2016-12-06T03:11:35.278Z,18.25
2016-12-06T03:12:03.293Z,18.18
2016-12-06T03:12:31.103Z,18.31
2016-12-06T03:12:59.253Z,18.24
2016-12-06T03:13:27.698Z,18.28
2016-12-06T03:13:56.020Z,18.27
2016-12-06T03:14:23.960Z,18.19
2016-12-06T03:14:51.749Z,18.17
2016-12-06T03:15:19.565Z,18.22
2016-12-06T03:15:47.912Z,18.15
2016-12-06T03:16:15.793Z,18.29
2016-12-06T03:16:43.609Z,18.18
2016-12-06T03:17:11.730Z,18.15
2016-12-06T03:17:39.815Z,18.25
2016-12-06T03:18:08.325Z,18.1
2016-12-06T03:18:36.147Z,18.15
2016-12-06T03:19:04.318Z,18.04
2016-12-06T03:19:32.261Z,18.17
2016-12-06T03:20:00.083Z,18.12
2016-12-06T03:20:28.224Z,18.17
2016-12-06T03:20:56.292Z,18.06
2016-12-06T03:21:24.009Z,18.15
2016-12-06T03:21:51.957Z,18.22
2016-12-06T03:22:20.028Z,18.07
2016-12-06T03:22:47.741Z,18.07
2016-12-06T03:23:15.586Z,18.12
2016-12-06T03:23:43.304Z,18.09
2016-12-06T03:24:11.034Z,18.13
2016-12-06T03:24:39.403Z,18.06
2016-12-06T03:25:07.862Z,17.99
2016-12-06T03:25:35.730Z,17.99
2016-12-06T03:26:03.442Z,18
2016-12-06T03:26:31.212Z,18.06
2016-12-06T03:26:59.518Z,17.95
2016-12-06T03:27:28.374Z,18
2016-12-06T03:27:56.142Z,17.99
2016-12-06T03:28:38.824Z,18
2016-12-06T03:29:06.668Z,18.06
2016-12-06T03:29:34.879Z,18.04
2016-12-06T03:30:17.645Z,17.97
2016-12-06T03:30:46.096Z,17.97
2016-12-06T03:31:14.229Z,17.97
2016-12-06T03:31:42.755Z,17.92
2016-12-06T03:32:11.056Z,17.88
2016-12-06T03:32:38.868Z,17.88
2016-12-06T03:33:06.687Z,17.91
2016-12-06T03:33:34.836Z,17.97
2016-12-06T03:34:03.385Z,17.94
2016-12-06T03:34:31.461Z,17.89
2016-12-06T03:34:59.597Z,17.95
2016-12-06T03:35:27.657Z,17.94
2016-12-06T03:35:55.450Z,17.91
2016-12-06T03:36:23.575Z,17.85
2016-12-06T03:36:51.365Z,17.95
2016-12-06T03:37:19.177Z,17.79
2016-12-06T03:37:47.061Z,17.94
2016-12-06T03:38:15.176Z,17.84
2016-12-06T03:38:43.895Z,17.79
2016-12-06T03:39:11.703Z,17.79
2016-12-06T03:39:40.096Z,17.87
2016-12-06T03:40:08.226Z,17.79
2016-12-06T03:40:36.355Z,17.81
2016-12-06T03:41:04.870Z,17.81
2016-12-06T03:41:32.746Z,17.88
2016-12-06T03:42:00.654Z,17.84
2016-12-06T03:42:28.851Z,17.76
2016-12-06T03:42:56.961Z,17.81
2016-12-06T03:43:24.783Z,17.79
2016-12-06T03:43:52.647Z,17.78
2016-12-06T03:44:20.787Z,17.76
2016-12-06T03:44:48.569Z,17.73
2016-12-06T03:45:16.712Z,17.76
2016-12-06T03:45:44.623Z,17.76
2016-12-06T03:46:12.434Z,17.81
2016-12-06T03:46:40.528Z,17.74
2016-12-06T03:47:08.654Z,17.78
2016-12-06T03:47:36.766Z,17.73
2016-12-06T03:48:04.554Z,17.73
2016-12-06T03:48:32.374Z,17.73
2016-12-06T03:49:00.227Z,17.74
2016-12-06T03:49:28.372Z,17.73
2016-12-06T03:49:56.218Z,17.74
2016-12-06T03:50:24.334Z,17.73
2016-12-06T03:50:52.181Z,17.73
2016-12-06T03:51:20.197Z,17.73
2016-12-06T03:51:48.276Z,17.69
2016-12-06T03:52:16.577Z,17.73
2016-12-06T03:52:45.111Z,17.67
2016-12-06T03:53:13.522Z,17.7
2016-12-06T03:53:41.645Z,17.73
2016-12-06T03:54:09.475Z,17.64
2016-12-06T03:54:37.910Z,17.7
2016-12-06T03:55:05.755Z,17.69
2016-12-06T03:55:33.569Z,17.69
2016-12-06T03:56:01.634Z,17.71
2016-12-06T03:56:29.853Z,17.69
2016-12-06T03:56:57.619Z,17.71
2016-12-06T03:57:25.719Z,17.67
2016-12-06T03:57:53.820Z,17.69
2016-12-06T03:58:21.583Z,17.69
2016-12-06T03:58:49.433Z,17.69
2016-12-06T03:59:18.476Z,17.7
2016-12-06T03:59:46.867Z,17.73
2016-12-06T04:00:14.980Z,17.71
2016-12-06T04:00:43.124Z,17.71
2016-12-06T04:01:10.920Z,17.76
2016-12-06T04:01:39.041Z,17.73
2016-12-06T04:02:07.286Z,17.73
2016-12-06T04:02:35.448Z,17.66
2016-12-06T04:03:03.271Z,17.7
2016-12-06T04:03:31.357Z,17.71
2016-12-06T04:03:59.498Z,17.66
2016-12-06T04:04:27.656Z,17.66
2016-12-06T04:04:55.801Z,17.67
2016-12-06T04:05:24.322Z,17.66
2016-12-06T04:05:52.420Z,17.66
2016-12-06T04:06:21.405Z,17.67
2016-12-06T04:06:49.189Z,17.67
2016-12-06T04:07:17.503Z,17.7
2016-12-06T04:07:45.308Z,17.59
2016-12-06T04:08:13.400Z,17.64
2016-12-06T04:08:41.611Z,17.62
2016-12-06T04:09:09.421Z,17.55
2016-12-06T04:09:37.229Z,17.62
2016-12-06T04:10:05.382Z,17.59
2016-12-06T04:10:33.923Z,17.62
2016-12-06T04:11:01.784Z,17.5
2016-12-06T04:11:29.588Z,17.55
2016-12-06T04:11:57.414Z,17.51
2016-12-06T04:12:25.515Z,17.51
2016-12-06T04:12:53.605Z,17.59
2016-12-06T04:13:21.386Z,17.46
2016-12-06T04:13:49.267Z,17.54
2016-12-06T04:14:17.096Z,17.44
2016-12-06T04:14:44.854Z,17.44
2016-12-06T04:15:12.651Z,17.4
2016-12-06T04:15:40.488Z,17.51
2016-12-06T04:16:08.729Z,17.5
2016-12-06T04:16:36.564Z,17.43
2016-12-06T04:17:04.400Z,17.44
2016-12-06T04:17:32.389Z,17.48
2016-12-06T04:18:00.262Z,17.5
2016-12-06T04:18:28.171Z,17.46
2016-12-06T04:18:56.658Z,17.41
2016-12-06T04:19:24.729Z,17.41
2016-12-06T04:19:53.151Z,17.44
2016-12-06T04:20:20.967Z,17.47
2016-12-06T04:20:48.708Z,17.47
2016-12-06T04:21:16.592Z,17.44
2016-12-06T04:21:44.418Z,17.47
2016-12-06T04:22:12.284Z,17.46
2016-12-06T04:22:40.098Z,17.47
2016-12-06T04:23:08.223Z,17.48
2016-12-06T04:23:36.027Z,17.41
2016-12-06T04:24:03.832Z,17.47
2016-12-06T04:24:31.619Z,17.54
2016-12-06T04:24:59.419Z,17.44
2016-12-06T04:25:27.885Z,17.46
2016-12-06T04:25:55.657Z,17.5
2016-12-06T04:26:24.110Z,17.48
2016-12-06T04:26:51.998Z,17.5
2016-12-06T04:27:20.160Z,17.44
2016-12-06T04:27:48.123Z,17.44
2016-12-06T04:28:16.507Z,17.46
2016-12-06T04:28:44.576Z,17.43
2016-12-06T04:29:12.693Z,17.46
2016-12-06T04:29:40.473Z,17.41
2016-12-06T04:30:08.563Z,17.35
2016-12-06T04:30:36.384Z,17.46
2016-12-06T04:31:04.825Z,17.33
2016-12-06T04:31:32.943Z,17.41
2016-12-06T04:32:00.947Z,17.4
2016-12-06T04:32:28.796Z,17.43
2016-12-06T04:32:56.657Z,17.3
2016-12-06T04:33:24.413Z,17.47
2016-12-06T04:33:52.530Z,17.38
2016-12-06T04:34:20.904Z,17.41
2016-12-06T04:34:49.012Z,17.41
2016-12-06T04:35:16.816Z,17.36
2016-12-06T04:35:45.026Z,17.38
2016-12-06T04:36:13.136Z,17.29
2016-12-06T04:36:40.960Z,17.4
2016-12-06T04:37:08.729Z,17.43
2016-12-06T04:37:36.684Z,17.3
2016-12-06T04:38:05.093Z,17.3
2016-12-06T04:38:32.862Z,17.32
2016-12-06T04:39:01.079Z,17.4
2016-12-06T04:39:29.045Z,17.32
2016-12-06T04:39:56.927Z,17.41
2016-12-06T04:40:25.335Z,17.29
2016-12-06T04:40:53.523Z,17.23
2016-12-06T04:41:21.353Z,17.41
2016-12-06T04:41:49.272Z,17.29
2016-12-06T04:42:17.494Z,17.32
2016-12-06T04:42:45.323Z,17.44
2016-12-06T04:43:13.547Z,17.29
2016-12-06T04:43:41.712Z,17.32
2016-12-06T04:44:09.551Z,17.33
2016-12-06T04:44:38.048Z,17.28
2016-12-06T04:45:06.185Z,17.36
2016-12-06T04:45:34.024Z,17.38
2016-12-06T04:46:02.444Z,17.3
2016-12-06T04:46:31.465Z,17.36
2016-12-06T04:46:59.984Z,17.38
2016-12-06T04:47:27.874Z,17.35
2016-12-06T04:47:55.788Z,17.28
2016-12-06T04:48:23.875Z,17.33
2016-12-06T04:48:52.071Z,17.25
2016-12-06T04:49:19.867Z,17.32
2016-12-06T04:49:47.684Z,17.26
2016-12-06T04:50:15.844Z,17.26
2016-12-06T04:50:43.713Z,17.23
2016-12-06T04:51:12.117Z,17.28
2016-12-06T04:51:39.851Z,17.29
2016-12-06T04:52:07.719Z,17.29
2016-12-06T04:52:35.832Z,17.23
2016-12-06T04:53:03.656Z,17.29
2016-12-06T04:53:32.074Z,17.25
2016-12-06T04:53:59.870Z,17.23
2016-12-06T04:54:27.643Z,17.26
2016-12-06T04:54:55.444Z,17.26
2016-12-06T04:55:23.894Z,17.26
2016-12-06T04:55:52.077Z,17.28
2016-12-06T04:56:20.210Z,17.23
2016-12-06T04:56:48.714Z,17.23
2016-12-06T04:57:16.519Z,17.28
2016-12-06T04:57:44.726Z,17.18
2016-12-06T04:58:12.883Z,17.11
2016-12-06T04:58:40.748Z,17.17
2016-12-06T04:59:08.840Z,17.13
2016-12-06T04:59:36.886Z,17.14
2016-12-06T05:00:04.764Z,17.15
2016-12-06T05:00:32.596Z,17.15
2016-12-06T05:01:00.682Z,17.14
2016-12-06T05:01:28.475Z,17.15
2016-12-06T05:01:56.570Z,17.13
2016-12-06T05:02:24.407Z,17.17
2016-12-06T05:02:52.760Z,17.17
2016-12-06T05:03:20.622Z,17.13
2016-12-06T05:03:48.448Z,17.11
2016-12-06T05:04:16.543Z,17.1
2016-12-06T05:04:44.657Z,17.03
2016-12-06T05:05:12.849Z,17.1
2016-12-06T05:05:40.666Z,17
2016-12-06T05:06:09.037Z,17
2016-12-06T05:06:37.122Z,17.03
2016-12-06T05:07:05.235Z,16.99
2016-12-06T05:07:33.087Z,16.98
2016-12-06T05:08:00.892Z,16.88
2016-12-06T05:08:29.330Z,16.96
2016-12-06T05:08:57.765Z,16.93
2016-12-06T05:09:25.608Z,16.93
2016-12-06T05:09:53.389Z,16.95
2016-12-06T05:10:21.583Z,16.96
2016-12-06T05:10:49.723Z,16.95
2016-12-06T05:11:17.563Z,16.99
2016-12-06T05:11:45.396Z,16.99
2016-12-06T05:12:13.212Z,16.95
2016-12-06T05:12:40.968Z,16.85
2016-12-06T05:13:08.952Z,16.98
2016-12-06T05:13:36.669Z,16.92
2016-12-06T05:14:04.848Z,16.98
2016-12-06T05:14:32.726Z,16.93
2016-12-06T05:15:01.421Z,16.98
2016-12-06T05:15:29.584Z,16.89
2016-12-06T05:15:58.080Z,16.85
2016-12-06T05:16:26.223Z,16.9
2016-12-06T05:16:54.055Z,16.83
2016-12-06T05:17:22.172Z,16.96
2016-12-06T05:17:49.966Z,16.88
2016-12-06T05:18:17.817Z,17.06
2016-12-06T05:18:46.351Z,16.9
2016-12-06T05:19:14.153Z,16.99
2016-12-06T05:19:42.016Z,16.9
2016-12-06T05:20:09.860Z,16.9
2016-12-06T05:20:37.720Z,16.93
2016-12-06T05:21:05.591Z,16.86
2016-12-06T05:21:33.496Z,16.98
2016-12-06T05:22:02.257Z,16.95
2016-12-06T05:22:30.386Z,16.96
2016-12-06T05:22:58.537Z,16.99
2016-12-06T05:23:26.315Z,16.96
2016-12-06T05:23:54.111Z,16.89
2016-12-06T05:24:22.170Z,16.99
2016-12-06T05:24:50.281Z,16.98
2016-12-06T05:25:18.268Z,16.95
2016-12-06T05:25:46.080Z,16.89
2016-12-06T05:26:13.835Z,16.99
2016-12-06T05:26:41.865Z,16.96
2016-12-06T05:27:09.681Z,16.89
2016-12-06T05:27:37.844Z,16.93
2016-12-06T05:28:05.683Z,16.92
2016-12-06T05:28:48.682Z,16.88
2016-12-06T05:29:16.535Z,16.9
2016-12-06T05:29:44.810Z,16.95
2016-12-06T05:30:12.920Z,16.93
2016-12-06T05:30:41.140Z,16.86
2016-12-06T05:31:08.920Z,16.9
2016-12-06T05:31:36.819Z,16.95
2016-12-06T05:32:04.673Z,16.85
2016-12-06T05:32:32.484Z,16.92
2016-12-06T05:33:00.429Z,16.92
2016-12-06T05:33:28.852Z,16.93
2016-12-06T05:33:57.020Z,16.8
2016-12-06T05:34:24.792Z,16.99
2016-12-06T05:34:52.869Z,16.95
2016-12-06T05:35:20.719Z,16.95
2016-12-06T05:35:48.715Z,16.93
2016-12-06T05:36:17.280Z,16.85
2016-12-06T05:36:45.094Z,16.95
2016-12-06T05:37:13.156Z,16.9
2016-12-06T05:37:40.974Z,16.95
2016-12-06T05:38:08.997Z,16.96
2016-12-06T05:38:36.812Z,16.95
2016-12-06T05:39:04.665Z,16.92
2016-12-06T05:39:32.564Z,16.9
2016-12-06T05:40:00.335Z,16.86
2016-12-06T05:40:28.452Z,16.86
2016-12-06T05:40:56.293Z,16.93
2016-12-06T05:41:24.185Z,16.81
2016-12-06T05:41:51.968Z,16.78
2016-12-06T05:42:19.747Z,16.86
2016-12-06T05:42:47.573Z,16.77
2016-12-06T05:43:15.433Z,16.8
2016-12-06T05:43:43.272Z,16.71
2016-12-06T05:44:11.527Z,16.8
2016-12-06T05:44:39.645Z,16.8
2016-12-06T05:45:07.409Z,16.77
2016-12-06T05:45:35.866Z,16.74
2016-12-06T05:46:03.671Z,16.81
2016-12-06T05:46:31.525Z,16.71
2016-12-06T05:46:59.360Z,16.78
2016-12-06T05:47:27.489Z,16.78
2016-12-06T05:47:55.907Z,16.77
2016-12-06T05:48:23.849Z,16.78
2016-12-06T05:48:51.926Z,16.8
2016-12-06T05:49:20.073Z,16.78
2016-12-06T05:49:47.861Z,16.89
2016-12-06T05:50:15.992Z,16.77
2016-12-06T05:50:44.070Z,16.8
2016-12-06T05:51:12.215Z,16.8
2016-12-06T05:51:40.132Z,16.83
2016-12-06T05:52:08.565Z,16.74
2016-12-06T05:52:36.431Z,16.8
2016-12-06T05:53:04.520Z,16.8
2016-12-06T05:53:32.328Z,16.77
2016-12-06T05:54:00.132Z,16.81
2016-12-06T05:54:28.913Z,16.73
2016-12-06T05:54:56.816Z,16.81
2016-12-06T05:55:24.753Z,16.71
2016-12-06T05:55:52.802Z,16.77
2016-12-06T05:56:20.940Z,16.8
2016-12-06T05:56:48.791Z,16.77
2016-12-06T05:57:16.965Z,16.75
2016-12-06T05:57:45.149Z,16.71
2016-12-06T05:58:13.552Z,16.71
2016-12-06T05:58:41.855Z,16.74
2016-12-06T05:59:09.973Z,16.75
2016-12-06T05:59:37.774Z,16.74
2016-12-06T06:00:05.861Z,16.73
2016-12-06T06:00:34.546Z,16.67
2016-12-06T06:01:02.355Z,16.68
2016-12-06T06:01:30.493Z,16.68
2016-12-06T06:01:58.326Z,16.73
2016-12-06T06:02:26.132Z,16.74
2016-12-06T06:02:53.888Z,16.75
2016-12-06T06:03:22.049Z,16.77
2016-12-06T06:03:50.025Z,16.73
2016-12-06T06:04:18.155Z,16.74
2016-12-06T06:04:46.230Z,16.78
2016-12-06T06:05:14.039Z,16.77
2016-12-06T06:05:42.421Z,16.78
2016-12-06T06:06:10.252Z,16.8
2016-12-06T06:06:38.065Z,16.8